sensor_id;sensor_type;location;lat;lon;timestamp;temperature;humidity
17331;DHT22;8783;52.448;4.638;2023-12-20T00:01:46;16.50;99.90
17331;DHT22;8783;52.448;4.638;2023-12-20T00:04:12;16.50;99.90
17331;DHT22;8783;52.448;4.638;2023-12-20T00:06:38;16.50;99.90
17331;DHT22;8783;52.448;4.638;2023-12-20T00:09:03;16.50;99.90
17331;DHT22;8783;52.448;4.638;2023-12-20T00:11:29;16.40;99.90
17331;DHT22;8783;52.448;4.638;2023-12-20T00:13:54;16.40;99.90
17331;DHT22;8783;52.448;4.638;2023-12-20T00:16:20;16.40;99.90
17331;DHT22;8783;52.448;4.638;2023-12-20T00:18:45;16.40;99.90
17331;DHT22;8783;52.448;4.638;2023-12-20T00:21:11;16.40;99.90
17331;DHT22;8783;52.448;4.638;2023-12-20T00:23:37;16.40;99.90
17331;DHT22;8783;52.448;4.638;2023-12-20T00:26:02;16.40;99.90
17331;DHT22;8783;52.448;4.638;2023-12-20T00:28:28;16.40;99.90
17331;DHT22;8783;52.448;4.638;2023-12-20T00:30:53;16.40;99.90
17331;DHT22;8783;52.448;4.638;2023-12-20T00:33:19;16.40;99.90
17331;DHT22;8783;52.448;4.638;2023-12-20T00:35:44;16.40;99.90
17331;DHT22;8783;52.448;4.638;2023-12-20T00:38:10;16.40;99.90
17331;DHT22;8783;52.448;4.638;2023-12-20T00:40:37;16.40;99.90
17331;DHT22;8783;52.448;4.638;2023-12-20T00:43:03;16.40;99.90
17331;DHT22;8783;52.448;4.638;2023-12-20T00:45:28;16.40;99.90
17331;DHT22;8783;52.448;4.638;2023-12-20T00:47:54;16.40;99.90
17331;DHT22;8783;52.448;4.638;2023-12-20T00:50:20;16.30;99.90
17331;DHT22;8783;52.448;4.638;2023-12-20T00:52:47;16.30;99.90
17331;DHT22;8783;52.448;4.638;2023-12-20T00:55:13;16.30;99.90
17331;DHT22;8783;52.448;4.638;2023-12-20T00:57:39;16.30;99.90
17331;DHT22;8783;52.448;4.638;2023-12-20T01:00:05;16.30;99.90
17331;DHT22;8783;52.448;4.638;2023-12-20T01:02:31;16.30;99.90
17331;DHT22;8783;52.448;4.638;2023-12-20T01:04:57;16.30;99.90
17331;DHT22;8783;52.448;4.638;2023-12-20T01:07:22;16.30;99.90
17331;DHT22;8783;52.448;4.638;2023-12-20T01:09:48;16.30;99.90
17331;DHT22;8783;52.448;4.638;2023-12-20T01:12:14;16.30;99.90
17331;DHT22;8783;52.448;4.638;2023-12-20T01:14:40;16.30;99.90
17331;DHT22;8783;52.448;4.638;2023-12-20T01:17:05;16.30;99.90
17331;DHT22;8783;52.448;4.638;2023-12-20T01:19:31;16.30;99.90
17331;DHT22;8783;52.448;4.638;2023-12-20T01:21:56;16.30;99.90
17331;DHT22;8783;52.448;4.638;2023-12-20T01:24:22;16.30;99.90
17331;DHT22;8783;52.448;4.638;2023-12-20T01:26:48;16.30;99.90
17331;DHT22;8783;52.448;4.638;2023-12-20T01:29:13;16.20;99.90
17331;DHT22;8783;52.448;4.638;2023-12-20T01:31:40;16.20;99.90
17331;DHT22;8783;52.448;4.638;2023-12-20T01:34:06;16.20;99.90
17331;DHT22;8783;52.448;4.638;2023-12-20T01:36:31;16.20;99.90
17331;DHT22;8783;52.448;4.638;2023-12-20T01:38:57;16.20;99.90
17331;DHT22;8783;52.448;4.638;2023-12-20T01:41:23;16.20;99.90
17331;DHT22;8783;52.448;4.638;2023-12-20T01:43:49;16.20;99.90
17331;DHT22;8783;52.448;4.638;2023-12-20T01:46:15;16.20;99.90
17331;DHT22;8783;52.448;4.638;2023-12-20T01:48:41;16.20;99.90
17331;DHT22;8783;52.448;4.638;2023-12-20T01:51:07;16.20;99.90
17331;DHT22;8783;52.448;4.638;2023-12-20T01:53:32;16.20;99.90
17331;DHT22;8783;52.448;4.638;2023-12-20T01:55:59;16.20;99.90
17331;DHT22;8783;52.448;4.638;2023-12-20T01:58:25;16.20;99.90
17331;DHT22;8783;52.448;4.638;2023-12-20T02:00:51;16.20;99.90
17331;DHT22;8783;52.448;4.638;2023-12-20T02:03:18;16.10;99.90
17331;DHT22;8783;52.448;4.638;2023-12-20T02:05:44;16.10;99.90
17331;DHT22;8783;52.448;4.638;2023-12-20T02:08:11;16.10;99.90
17331;DHT22;8783;52.448;4.638;2023-12-20T02:10:36;16.20;99.90
17331;DHT22;8783;52.448;4.638;2023-12-20T02:13:03;16.10;99.90
17331;DHT22;8783;52.448;4.638;2023-12-20T02:15:29;16.20;99.90
17331;DHT22;8783;52.448;4.638;2023-12-20T02:17:55;16.10;99.90
17331;DHT22;8783;52.448;4.638;2023-12-20T02:20:21;16.10;99.90
17331;DHT22;8783;52.448;4.638;2023-12-20T02:22:46;16.10;99.90
17331;DHT22;8783;52.448;4.638;2023-12-20T02:25:12;16.10;99.90
17331;DHT22;8783;52.448;4.638;2023-12-20T02:27:38;16.10;99.90
17331;DHT22;8783;52.448;4.638;2023-12-20T02:30:05;16.10;99.90
17331;DHT22;8783;52.448;4.638;2023-12-20T02:32:31;16.10;99.90
17331;DHT22;8783;52.448;4.638;2023-12-20T02:34:57;16.10;99.90
17331;DHT22;8783;52.448;4.638;2023-12-20T02:37:23;16.10;99.90
17331;DHT22;8783;52.448;4.638;2023-12-20T02:39:48;16.10;99.90
17331;DHT22;8783;52.448;4.638;2023-12-20T02:42:14;16.10;99.90
17331;DHT22;8783;52.448;4.638;2023-12-20T02:44:39;16.10;99.90
17331;DHT22;8783;52.448;4.638;2023-12-20T02:47:05;16.10;99.90
17331;DHT22;8783;52.448;4.638;2023-12-20T02:49:31;16.10;99.90
17331;DHT22;8783;52.448;4.638;2023-12-20T02:51:56;16.10;99.90
17331;DHT22;8783;52.448;4.638;2023-12-20T02:54:22;16.10;99.90
17331;DHT22;8783;52.448;4.638;2023-12-20T02:56:48;16.10;99.90
17331;DHT22;8783;52.448;4.638;2023-12-20T02:59:14;16.10;99.90
17331;DHT22;8783;52.448;4.638;2023-12-20T03:01:44;16.00;99.90
17331;DHT22;8783;52.448;4.638;2023-12-20T03:04:10;16.10;99.90
17331;DHT22;8783;52.448;4.638;2023-12-20T03:06:36;16.10;99.90
17331;DHT22;8783;52.448;4.638;2023-12-20T03:09:02;16.10;99.90
17331;DHT22;8783;52.448;4.638;2023-12-20T03:11:27;16.00;99.90
17331;DHT22;8783;52.448;4.638;2023-12-20T03:13:54;16.00;99.90
17331;DHT22;8783;52.448;4.638;2023-12-20T03:16:20;16.00;99.90
17331;DHT22;8783;52.448;4.638;2023-12-20T03:18:45;16.00;99.90
17331;DHT22;8783;52.448;4.638;2023-12-20T03:21:11;16.10;99.90
17331;DHT22;8783;52.448;4.638;2023-12-20T03:23:36;16.00;99.90
17331;DHT22;8783;52.448;4.638;2023-12-20T03:26:02;16.10;99.90
17331;DHT22;8783;52.448;4.638;2023-12-20T03:28:29;16.00;99.90
17331;DHT22;8783;52.448;4.638;2023-12-20T03:30:54;16.00;99.90
17331;DHT22;8783;52.448;4.638;2023-12-20T03:33:20;16.00;99.90
17331;DHT22;8783;52.448;4.638;2023-12-20T03:35:45;16.00;99.90
17331;DHT22;8783;52.448;4.638;2023-12-20T03:38:11;16.00;99.90
17331;DHT22;8783;52.448;4.638;2023-12-20T03:40:37;16.00;99.90
17331;DHT22;8783;52.448;4.638;2023-12-20T03:43:02;16.00;99.90
17331;DHT22;8783;52.448;4.638;2023-12-20T03:45:28;16.00;99.90
17331;DHT22;8783;52.448;4.638;2023-12-20T03:47:54;16.00;99.90
17331;DHT22;8783;52.448;4.638;2023-12-20T03:50:23;16.00;99.90
17331;DHT22;8783;52.448;4.638;2023-12-20T03:52:48;16.00;99.90
17331;DHT22;8783;52.448;4.638;2023-12-20T03:55:14;16.00;99.90
17331;DHT22;8783;52.448;4.638;2023-12-20T03:57:40;16.00;99.90
17331;DHT22;8783;52.448;4.638;2023-12-20T04:00:07;16.00;99.90
17331;DHT22;8783;52.448;4.638;2023-12-20T04:02:45;16.00;99.90
17331;DHT22;8783;52.448;4.638;2023-12-20T04:05:11;16.00;99.90
17331;DHT22;8783;52.448;4.638;2023-12-20T04:07:36;16.00;99.90
17331;DHT22;8783;52.448;4.638;2023-12-20T04:10:02;16.00;99.90
17331;DHT22;8783;52.448;4.638;2023-12-20T04:12:29;16.00;99.90
17331;DHT22;8783;52.448;4.638;2023-12-20T04:14:55;16.00;99.90
17331;DHT22;8783;52.448;4.638;2023-12-20T04:17:20;16.00;99.90
17331;DHT22;8783;52.448;4.638;2023-12-20T04:19:51;16.00;99.90
17331;DHT22;8783;52.448;4.638;2023-12-20T04:22:20;16.00;99.90
17331;DHT22;8783;52.448;4.638;2023-12-20T04:24:45;16.00;99.90
17331;DHT22;8783;52.448;4.638;2023-12-20T04:27:11;16.00;99.90
17331;DHT22;8783;52.448;4.638;2023-12-20T04:29:37;16.00;99.90
17331;DHT22;8783;52.448;4.638;2023-12-20T04:32:03;16.00;99.90
17331;DHT22;8783;52.448;4.638;2023-12-20T04:34:29;16.00;99.90
17331;DHT22;8783;52.448;4.638;2023-12-20T04:36:55;16.00;99.90
17331;DHT22;8783;52.448;4.638;2023-12-20T04:39:20;16.00;99.90
17331;DHT22;8783;52.448;4.638;2023-12-20T04:41:47;16.00;99.90
17331;DHT22;8783;52.448;4.638;2023-12-20T04:44:13;16.00;99.90
17331;DHT22;8783;52.448;4.638;2023-12-20T04:46:39;16.00;99.90
17331;DHT22;8783;52.448;4.638;2023-12-20T04:49:04;16.00;99.90
17331;DHT22;8783;52.448;4.638;2023-12-20T04:51:33;16.00;99.90
17331;DHT22;8783;52.448;4.638;2023-12-20T04:53:59;16.00;99.90
17331;DHT22;8783;52.448;4.638;2023-12-20T04:56:24;16.00;99.90
17331;DHT22;8783;52.448;4.638;2023-12-20T04:58:50;16.00;99.90
17331;DHT22;8783;52.448;4.638;2023-12-20T05:01:15;15.90;99.90
17331;DHT22;8783;52.448;4.638;2023-12-20T05:03:41;15.90;99.90
17331;DHT22;8783;52.448;4.638;2023-12-20T05:06:06;16.00;99.90
17331;DHT22;8783;52.448;4.638;2023-12-20T05:08:32;15.90;99.90
17331;DHT22;8783;52.448;4.638;2023-12-20T05:10:58;15.90;99.90
17331;DHT22;8783;52.448;4.638;2023-12-20T05:13:23;15.90;99.90
17331;DHT22;8783;52.448;4.638;2023-12-20T05:15:49;15.90;99.90
17331;DHT22;8783;52.448;4.638;2023-12-20T05:18:14;15.90;99.90
17331;DHT22;8783;52.448;4.638;2023-12-20T05:20:40;15.90;99.90
17331;DHT22;8783;52.448;4.638;2023-12-20T05:23:06;15.90;99.90
17331;DHT22;8783;52.448;4.638;2023-12-20T05:25:32;15.90;99.90
17331;DHT22;8783;52.448;4.638;2023-12-20T05:27:58;15.90;99.90
17331;DHT22;8783;52.448;4.638;2023-12-20T05:30:23;15.90;99.90
17331;DHT22;8783;52.448;4.638;2023-12-20T05:32:49;15.90;99.90
17331;DHT22;8783;52.448;4.638;2023-12-20T05:35:15;15.90;99.90
17331;DHT22;8783;52.448;4.638;2023-12-20T05:37:41;15.90;99.90
17331;DHT22;8783;52.448;4.638;2023-12-20T05:40:07;15.90;99.90
17331;DHT22;8783;52.448;4.638;2023-12-20T05:42:36;15.90;99.90
17331;DHT22;8783;52.448;4.638;2023-12-20T05:45:01;15.90;99.90
17331;DHT22;8783;52.448;4.638;2023-12-20T05:47:27;15.90;99.90
17331;DHT22;8783;52.448;4.638;2023-12-20T05:49:53;15.90;99.90
17331;DHT22;8783;52.448;4.638;2023-12-20T05:52:18;15.90;99.90
17331;DHT22;8783;52.448;4.638;2023-12-20T05:54:44;15.90;99.90
17331;DHT22;8783;52.448;4.638;2023-12-20T05:57:09;15.90;99.90
17331;DHT22;8783;52.448;4.638;2023-12-20T05:59:35;15.90;99.90
17331;DHT22;8783;52.448;4.638;2023-12-20T06:02:01;15.90;99.90
17331;DHT22;8783;52.448;4.638;2023-12-20T06:04:26;15.90;99.90
17331;DHT22;8783;52.448;4.638;2023-12-20T06:06:52;15.90;99.90
17331;DHT22;8783;52.448;4.638;2023-12-20T06:09:17;15.90;99.90
17331;DHT22;8783;52.448;4.638;2023-12-20T06:11:43;15.90;99.90
17331;DHT22;8783;52.448;4.638;2023-12-20T06:14:08;15.90;99.90
17331;DHT22;8783;52.448;4.638;2023-12-20T06:16:34;15.90;99.90
17331;DHT22;8783;52.448;4.638;2023-12-20T06:18:59;15.90;99.90
17331;DHT22;8783;52.448;4.638;2023-12-20T06:21:25;15.90;99.90
17331;DHT22;8783;52.448;4.638;2023-12-20T06:23:51;15.90;99.90
17331;DHT22;8783;52.448;4.638;2023-12-20T06:26:16;15.90;99.90
17331;DHT22;8783;52.448;4.638;2023-12-20T06:28:42;15.90;99.90
17331;DHT22;8783;52.448;4.638;2023-12-20T06:31:08;16.00;99.90
17331;DHT22;8783;52.448;4.638;2023-12-20T06:33:33;16.00;99.90
17331;DHT22;8783;52.448;4.638;2023-12-20T06:35:59;16.00;99.90
17331;DHT22;8783;52.448;4.638;2023-12-20T06:38:25;15.90;99.90
17331;DHT22;8783;52.448;4.638;2023-12-20T06:40:51;16.00;99.90
17331;DHT22;8783;52.448;4.638;2023-12-20T06:43:16;16.00;99.90
17331;DHT22;8783;52.448;4.638;2023-12-20T06:45:42;16.00;99.90
17331;DHT22;8783;52.448;4.638;2023-12-20T06:48:07;16.00;99.90
17331;DHT22;8783;52.448;4.638;2023-12-20T06:50:33;16.00;99.90
17331;DHT22;8783;52.448;4.638;2023-12-20T06:52:59;16.00;99.90
17331;DHT22;8783;52.448;4.638;2023-12-20T06:55:24;16.10;99.90
17331;DHT22;8783;52.448;4.638;2023-12-20T06:57:50;16.10;99.90
17331;DHT22;8783;52.448;4.638;2023-12-20T07:00:16;16.10;99.90
17331;DHT22;8783;52.448;4.638;2023-12-20T07:02:41;16.00;99.90
17331;DHT22;8783;52.448;4.638;2023-12-20T07:05:07;16.10;99.90
17331;DHT22;8783;52.448;4.638;2023-12-20T07:07:33;16.10;99.90
17331;DHT22;8783;52.448;4.638;2023-12-20T07:09:58;16.20;99.90
17331;DHT22;8783;52.448;4.638;2023-12-20T07:12:24;16.20;99.90
17331;DHT22;8783;52.448;4.638;2023-12-20T07:14:49;16.20;99.90
17331;DHT22;8783;52.448;4.638;2023-12-20T07:17:15;16.20;99.90
17331;DHT22;8783;52.448;4.638;2023-12-20T07:19:41;16.20;99.90
17331;DHT22;8783;52.448;4.638;2023-12-20T07:22:07;16.20;99.90
17331;DHT22;8783;52.448;4.638;2023-12-20T07:24:33;16.20;99.90
17331;DHT22;8783;52.448;4.638;2023-12-20T07:27:00;16.20;99.90
17331;DHT22;8783;52.448;4.638;2023-12-20T07:29:25;16.20;99.90
17331;DHT22;8783;52.448;4.638;2023-12-20T07:31:52;16.20;99.90
17331;DHT22;8783;52.448;4.638;2023-12-20T07:34:19;16.20;99.90
17331;DHT22;8783;52.448;4.638;2023-12-20T07:36:45;16.20;99.90
17331;DHT22;8783;52.448;4.638;2023-12-20T07:39:10;16.20;99.90
17331;DHT22;8783;52.448;4.638;2023-12-20T07:41:36;16.30;99.90
17331;DHT22;8783;52.448;4.638;2023-12-20T07:44:03;16.30;99.90
17331;DHT22;8783;52.448;4.638;2023-12-20T07:46:29;16.30;99.90
17331;DHT22;8783;52.448;4.638;2023-12-20T07:48:54;16.20;99.90
17331;DHT22;8783;52.448;4.638;2023-12-20T07:51:23;16.30;99.90
17331;DHT22;8783;52.448;4.638;2023-12-20T07:53:55;16.30;99.90
17331;DHT22;8783;52.448;4.638;2023-12-20T07:56:20;16.30;99.90
17331;DHT22;8783;52.448;4.638;2023-12-20T07:58:52;16.30;99.90
17331;DHT22;8783;52.448;4.638;2023-12-20T08:01:17;16.30;99.90
17331;DHT22;8783;52.448;4.638;2023-12-20T08:03:44;16.30;99.90
17331;DHT22;8783;52.448;4.638;2023-12-20T08:06:09;16.40;99.90
17331;DHT22;8783;52.448;4.638;2023-12-20T08:08:38;16.30;99.90
17331;DHT22;8783;52.448;4.638;2023-12-20T08:11:04;16.40;99.90
17331;DHT22;8783;52.448;4.638;2023-12-20T08:13:32;16.40;99.90
17331;DHT22;8783;52.448;4.638;2023-12-20T08:15:58;16.40;99.90
17331;DHT22;8783;52.448;4.638;2023-12-20T08:18:26;16.40;99.90
17331;DHT22;8783;52.448;4.638;2023-12-20T08:20:55;16.40;99.90
17331;DHT22;8783;52.448;4.638;2023-12-20T08:23:20;16.40;99.90
17331;DHT22;8783;52.448;4.638;2023-12-20T08:25:49;16.40;99.90
17331;DHT22;8783;52.448;4.638;2023-12-20T08:28:15;16.40;99.90
17331;DHT22;8783;52.448;4.638;2023-12-20T08:30:40;16.40;99.90
17331;DHT22;8783;52.448;4.638;2023-12-20T08:33:06;16.30;99.90
17331;DHT22;8783;52.448;4.638;2023-12-20T08:35:36;16.40;99.90
17331;DHT22;8783;52.448;4.638;2023-12-20T08:38:02;16.40;99.90
17331;DHT22;8783;52.448;4.638;2023-12-20T08:40:29;16.40;99.90
17331;DHT22;8783;52.448;4.638;2023-12-20T08:42:55;16.40;99.90
17331;DHT22;8783;52.448;4.638;2023-12-20T08:45:21;16.40;99.90
17331;DHT22;8783;52.448;4.638;2023-12-20T08:47:46;16.30;99.90
17331;DHT22;8783;52.448;4.638;2023-12-20T08:50:12;16.40;99.90
17331;DHT22;8783;52.448;4.638;2023-12-20T08:52:40;16.30;99.90
17331;DHT22;8783;52.448;4.638;2023-12-20T08:55:06;16.30;99.90
17331;DHT22;8783;52.448;4.638;2023-12-20T08:57:32;16.30;99.90
17331;DHT22;8783;52.448;4.638;2023-12-20T08:59:59;16.30;99.90
17331;DHT22;8783;52.448;4.638;2023-12-20T09:02:24;16.30;99.90
17331;DHT22;8783;52.448;4.638;2023-12-20T09:04:50;16.30;99.90
17331;DHT22;8783;52.448;4.638;2023-12-20T09:07:26;16.30;99.90
17331;DHT22;8783;52.448;4.638;2023-12-20T09:09:52;16.30;99.90
17331;DHT22;8783;52.448;4.638;2023-12-20T09:12:19;16.30;99.90
17331;DHT22;8783;52.448;4.638;2023-12-20T09:14:49;16.30;99.90
17331;DHT22;8783;52.448;4.638;2023-12-20T09:17:15;16.30;99.90
17331;DHT22;8783;52.448;4.638;2023-12-20T09:19:42;16.30;99.90
17331;DHT22;8783;52.448;4.638;2023-12-20T09:22:09;16.30;99.90
17331;DHT22;8783;52.448;4.638;2023-12-20T09:24:35;16.30;99.90
17331;DHT22;8783;52.448;4.638;2023-12-20T09:27:01;16.30;99.90
17331;DHT22;8783;52.448;4.638;2023-12-20T09:29:26;16.30;99.90
17331;DHT22;8783;52.448;4.638;2023-12-20T09:31:52;16.30;99.90
17331;DHT22;8783;52.448;4.638;2023-12-20T09:34:20;16.20;99.90
17331;DHT22;8783;52.448;4.638;2023-12-20T09:36:49;16.30;99.90
17331;DHT22;8783;52.448;4.638;2023-12-20T09:39:16;16.20;99.90
17331;DHT22;8783;52.448;4.638;2023-12-20T09:41:49;16.20;99.90
17331;DHT22;8783;52.448;4.638;2023-12-20T09:44:17;16.20;99.90
17331;DHT22;8783;52.448;4.638;2023-12-20T09:46:48;16.20;99.90
17331;DHT22;8783;52.448;4.638;2023-12-20T09:49:19;16.20;99.90
17331;DHT22;8783;52.448;4.638;2023-12-20T09:51:46;16.20;99.90
17331;DHT22;8783;52.448;4.638;2023-12-20T09:54:14;16.20;99.90
17331;DHT22;8783;52.448;4.638;2023-12-20T09:56:41;16.20;99.90
17331;DHT22;8783;52.448;4.638;2023-12-20T09:59:07;16.20;99.90
17331;DHT22;8783;52.448;4.638;2023-12-20T10:01:34;16.20;99.90
17331;DHT22;8783;52.448;4.638;2023-12-20T10:04:01;16.30;99.90
17331;DHT22;8783;52.448;4.638;2023-12-20T10:06:32;16.20;99.90
17331;DHT22;8783;52.448;4.638;2023-12-20T10:08:58;16.20;99.90
17331;DHT22;8783;52.448;4.638;2023-12-20T10:11:24;16.30;99.90
17331;DHT22;8783;52.448;4.638;2023-12-20T10:13:50;16.30;99.90
17331;DHT22;8783;52.448;4.638;2023-12-20T10:16:15;16.20;99.90
17331;DHT22;8783;52.448;4.638;2023-12-20T10:18:41;16.20;99.90
17331;DHT22;8783;52.448;4.638;2023-12-20T10:21:07;16.20;99.90
17331;DHT22;8783;52.448;4.638;2023-12-20T10:23:35;16.20;99.90
17331;DHT22;8783;52.448;4.638;2023-12-20T10:26:02;16.20;99.90
17331;DHT22;8783;52.448;4.638;2023-12-20T10:28:33;16.20;99.90
17331;DHT22;8783;52.448;4.638;2023-12-20T10:30:59;16.20;99.90
17331;DHT22;8783;52.448;4.638;2023-12-20T10:33:29;16.20;99.90
17331;DHT22;8783;52.448;4.638;2023-12-20T10:35:56;16.20;99.90
17331;DHT22;8783;52.448;4.638;2023-12-20T10:38:22;16.20;99.90
17331;DHT22;8783;52.448;4.638;2023-12-20T10:40:47;16.20;99.90
17331;DHT22;8783;52.448;4.638;2023-12-20T10:43:15;16.20;99.90
17331;DHT22;8783;52.448;4.638;2023-12-20T10:45:42;16.20;99.90
17331;DHT22;8783;52.448;4.638;2023-12-20T10:48:10;16.20;99.90
17331;DHT22;8783;52.448;4.638;2023-12-20T10:50:38;16.20;99.90
17331;DHT22;8783;52.448;4.638;2023-12-20T10:53:07;16.20;99.90
17331;DHT22;8783;52.448;4.638;2023-12-20T10:55:33;16.20;99.90
17331;DHT22;8783;52.448;4.638;2023-12-20T10:58:07;16.20;99.90
17331;DHT22;8783;52.448;4.638;2023-12-20T11:00:39;16.20;99.90
17331;DHT22;8783;52.448;4.638;2023-12-20T11:03:07;16.10;99.90
17331;DHT22;8783;52.448;4.638;2023-12-20T11:11:32;16.10;99.90
17331;DHT22;8783;52.448;4.638;2023-12-20T11:14:03;16.10;99.90
17331;DHT22;8783;52.448;4.638;2023-12-20T11:16:40;16.10;99.90
17331;DHT22;8783;52.448;4.638;2023-12-20T11:19:06;16.10;99.90
17331;DHT22;8783;52.448;4.638;2023-12-20T11:21:32;16.10;99.90
17331;DHT22;8783;52.448;4.638;2023-12-20T11:24:02;16.10;99.90
17331;DHT22;8783;52.448;4.638;2023-12-20T11:26:29;16.10;99.90
17331;DHT22;8783;52.448;4.638;2023-12-20T11:31:56;16.00;99.90
17331;DHT22;8783;52.448;4.638;2023-12-20T11:34:21;16.00;99.90
17331;DHT22;8783;52.448;4.638;2023-12-20T11:36:47;16.00;99.90
17331;DHT22;8783;52.448;4.638;2023-12-20T11:39:21;16.00;99.90
17331;DHT22;8783;52.448;4.638;2023-12-20T11:41:46;16.00;99.90
17331;DHT22;8783;52.448;4.638;2023-12-20T11:44:14;16.00;99.90
17331;DHT22;8783;52.448;4.638;2023-12-20T11:46:42;16.00;99.90
17331;DHT22;8783;52.448;4.638;2023-12-20T11:49:09;16.00;99.90
17331;DHT22;8783;52.448;4.638;2023-12-20T11:51:35;16.00;99.90
17331;DHT22;8783;52.448;4.638;2023-12-20T11:54:00;16.00;99.90
17331;DHT22;8783;52.448;4.638;2023-12-20T11:56:26;16.00;99.90
17331;DHT22;8783;52.448;4.638;2023-12-20T11:58:52;16.00;99.90
17331;DHT22;8783;52.448;4.638;2023-12-20T12:01:19;16.00;99.90
17331;DHT22;8783;52.448;4.638;2023-12-20T12:03:45;16.10;99.90
17331;DHT22;8783;52.448;4.638;2023-12-20T12:06:11;16.10;99.90
17331;DHT22;8783;52.448;4.638;2023-12-20T12:08:38;16.10;99.90
17331;DHT22;8783;52.448;4.638;2023-12-20T12:11:04;16.10;99.90
17331;DHT22;8783;52.448;4.638;2023-12-20T12:13:29;16.10;99.90
17331;DHT22;8783;52.448;4.638;2023-12-20T12:15:59;16.00;99.90
17331;DHT22;8783;52.448;4.638;2023-12-20T12:18:24;16.00;99.90
17331;DHT22;8783;52.448;4.638;2023-12-20T12:20:50;16.00;99.90
17331;DHT22;8783;52.448;4.638;2023-12-20T12:23:24;16.00;99.90
17331;DHT22;8783;52.448;4.638;2023-12-20T12:25:50;16.00;99.90
17331;DHT22;8783;52.448;4.638;2023-12-20T12:28:23;16.00;99.90
17331;DHT22;8783;52.448;4.638;2023-12-20T12:31:00;16.00;99.90
17331;DHT22;8783;52.448;4.638;2023-12-20T12:33:26;16.00;99.90
17331;DHT22;8783;52.448;4.638;2023-12-20T12:35:54;16.00;99.90
17331;DHT22;8783;52.448;4.638;2023-12-20T12:38:21;16.00;99.90
17331;DHT22;8783;52.448;4.638;2023-12-20T12:40:47;16.10;99.90
17331;DHT22;8783;52.448;4.638;2023-12-20T12:43:12;16.60;99.90
17331;DHT22;8783;52.448;4.638;2023-12-20T12:45:38;17.10;99.90
17331;DHT22;8783;52.448;4.638;2023-12-20T12:48:05;17.10;99.90
17331;DHT22;8783;52.448;4.638;2023-12-20T12:50:31;17.50;99.90
17331;DHT22;8783;52.448;4.638;2023-12-20T12:52:56;17.80;99.90
17331;DHT22;8783;52.448;4.638;2023-12-20T12:55:22;17.70;99.90
17331;DHT22;8783;52.448;4.638;2023-12-20T12:57:48;17.90;99.90
17331;DHT22;8783;52.448;4.638;2023-12-20T13:00:14;18.00;99.90
17331;DHT22;8783;52.448;4.638;2023-12-20T13:02:39;18.00;99.90
17331;DHT22;8783;52.448;4.638;2023-12-20T13:05:08;18.20;99.90
17331;DHT22;8783;52.448;4.638;2023-12-20T13:07:34;18.10;99.90
17331;DHT22;8783;52.448;4.638;2023-12-20T13:10:00;18.40;99.90
17331;DHT22;8783;52.448;4.638;2023-12-20T13:12:26;18.30;99.90
17331;DHT22;8783;52.448;4.638;2023-12-20T13:14:52;18.40;99.90
17331;DHT22;8783;52.448;4.638;2023-12-20T13:17:19;18.50;99.90
17331;DHT22;8783;52.448;4.638;2023-12-20T13:19:44;18.50;99.90
17331;DHT22;8783;52.448;4.638;2023-12-20T13:22:10;18.70;99.90
17331;DHT22;8783;52.448;4.638;2023-12-20T13:24:36;18.60;99.90
17331;DHT22;8783;52.448;4.638;2023-12-20T13:27:01;18.70;99.90
17331;DHT22;8783;52.448;4.638;2023-12-20T13:29:27;18.80;99.90
17331;DHT22;8783;52.448;4.638;2023-12-20T13:31:53;18.70;99.90
17331;DHT22;8783;52.448;4.638;2023-12-20T13:34:19;18.80;99.90
17331;DHT22;8783;52.448;4.638;2023-12-20T13:36:45;18.70;99.90
17331;DHT22;8783;52.448;4.638;2023-12-20T13:39:12;18.80;99.90
17331;DHT22;8783;52.448;4.638;2023-12-20T13:41:38;18.80;99.90
17331;DHT22;8783;52.448;4.638;2023-12-20T13:44:04;18.80;99.90
17331;DHT22;8783;52.448;4.638;2023-12-20T13:46:30;19.00;99.90
17331;DHT22;8783;52.448;4.638;2023-12-20T13:48:55;18.80;99.90
17331;DHT22;8783;52.448;4.638;2023-12-20T13:51:21;19.00;99.90
17331;DHT22;8783;52.448;4.638;2023-12-20T13:53:47;19.00;99.90
17331;DHT22;8783;52.448;4.638;2023-12-20T13:56:17;18.90;99.90
17331;DHT22;8783;52.448;4.638;2023-12-20T13:58:43;19.20;99.90
17331;DHT22;8783;52.448;4.638;2023-12-20T14:01:09;19.10;99.90
17331;DHT22;8783;52.448;4.638;2023-12-20T14:03:36;19.30;99.90
17331;DHT22;8783;52.448;4.638;2023-12-20T14:06:01;19.30;99.90
17331;DHT22;8783;52.448;4.638;2023-12-20T14:08:27;19.20;99.90
17331;DHT22;8783;52.448;4.638;2023-12-20T14:10:53;19.50;99.90
17331;DHT22;8783;52.448;4.638;2023-12-20T14:13:19;19.40;99.90
17331;DHT22;8783;52.448;4.638;2023-12-20T14:15:44;19.40;99.90
17331;DHT22;8783;52.448;4.638;2023-12-20T14:18:10;19.50;99.90
17331;DHT22;8783;52.448;4.638;2023-12-20T14:20:37;19.40;99.90
17331;DHT22;8783;52.448;4.638;2023-12-20T14:23:05;19.60;99.90
17331;DHT22;8783;52.448;4.638;2023-12-20T14:25:30;19.60;99.90
17331;DHT22;8783;52.448;4.638;2023-12-20T14:27:59;19.50;99.90
17331;DHT22;8783;52.448;4.638;2023-12-20T14:30:28;19.40;99.90
17331;DHT22;8783;52.448;4.638;2023-12-20T14:32:54;19.30;99.90
17331;DHT22;8783;52.448;4.638;2023-12-20T14:35:22;19.30;99.90
17331;DHT22;8783;52.448;4.638;2023-12-20T14:37:48;19.20;99.90
17331;DHT22;8783;52.448;4.638;2023-12-20T14:40:14;19.20;99.90
17331;DHT22;8783;52.448;4.638;2023-12-20T14:42:48;18.90;99.90
17331;DHT22;8783;52.448;4.638;2023-12-20T14:45:15;18.90;99.90
17331;DHT22;8783;52.448;4.638;2023-12-20T14:47:41;18.80;99.90
17331;DHT22;8783;52.448;4.638;2023-12-20T14:50:12;18.70;99.90
17331;DHT22;8783;52.448;4.638;2023-12-20T14:52:43;18.60;99.90
17331;DHT22;8783;52.448;4.638;2023-12-20T14:55:14;18.50;99.90
17331;DHT22;8783;52.448;4.638;2023-12-20T14:57:43;18.50;99.90
17331;DHT22;8783;52.448;4.638;2023-12-20T15:00:09;18.40;99.90
17331;DHT22;8783;52.448;4.638;2023-12-20T15:02:35;18.30;99.90
17331;DHT22;8783;52.448;4.638;2023-12-20T15:05:00;18.30;99.90
17331;DHT22;8783;52.448;4.638;2023-12-20T15:07:26;18.20;99.90
17331;DHT22;8783;52.448;4.638;2023-12-20T15:09:53;18.20;99.90
17331;DHT22;8783;52.448;4.638;2023-12-20T15:12:19;18.20;99.90
17331;DHT22;8783;52.448;4.638;2023-12-20T15:14:45;18.20;99.90
17331;DHT22;8783;52.448;4.638;2023-12-20T15:17:10;18.20;99.90
17331;DHT22;8783;52.448;4.638;2023-12-20T15:19:36;18.10;99.90
17331;DHT22;8783;52.448;4.638;2023-12-20T15:22:01;18.10;99.90
17331;DHT22;8783;52.448;4.638;2023-12-20T15:24:29;18.10;99.90
17331;DHT22;8783;52.448;4.638;2023-12-20T15:27:04;18.00;99.90
17331;DHT22;8783;52.448;4.638;2023-12-20T15:29:29;18.00;99.90
17331;DHT22;8783;52.448;4.638;2023-12-20T15:31:56;18.00;99.90
17331;DHT22;8783;52.448;4.638;2023-12-20T15:34:22;18.00;99.90
17331;DHT22;8783;52.448;4.638;2023-12-20T15:36:47;17.90;99.90
17331;DHT22;8783;52.448;4.638;2023-12-20T15:39:13;17.90;99.90
17331;DHT22;8783;52.448;4.638;2023-12-20T15:41:40;17.90;99.90
17331;DHT22;8783;52.448;4.638;2023-12-20T15:44:05;17.90;99.90
17331;DHT22;8783;52.448;4.638;2023-12-20T15:46:31;17.80;99.90
17331;DHT22;8783;52.448;4.638;2023-12-20T15:48:57;17.80;99.90